createdAt,value
2022-11-28T00:00:23.918Z,99028.00
2022-11-28T00:02:54.018Z,99041.00
2022-11-28T00:05:23.895Z,99022.00
2022-11-28T00:07:56.615Z,99020.00
2022-11-28T00:10:26.501Z,99030.00
2022-11-28T00:12:56.386Z,99035.00
2022-11-28T00:15:26.147Z,99026.00
2022-11-28T00:17:56.070Z,99024.00
2022-11-28T00:20:25.892Z,99016.00
2022-11-28T00:22:58.361Z,99008.00
2022-11-28T00:25:28.275Z,99016.00
2022-11-28T00:27:58.114Z,99014.00
2022-11-28T00:30:28.077Z,99013.00
2022-11-28T00:32:57.940Z,99000.00
2022-11-28T00:35:27.758Z,99010.00
2022-11-28T00:38:00.165Z,99000.00
2022-11-28T00:40:30.067Z,98989.00
2022-11-28T00:42:59.931Z,98989.00
2022-11-28T00:45:29.752Z,98998.00
2022-11-28T00:47:59.625Z,98988.00
2022-11-28T00:50:29.541Z,98977.00
2022-11-28T00:53:02.007Z,98984.00
2022-11-28T00:55:32.015Z,98981.00
2022-11-28T00:58:01.864Z,98984.00
2022-11-28T01:00:32.637Z,98975.00
2022-11-28T01:03:02.616Z,98966.00
2022-11-28T01:05:32.570Z,98974.00
2022-11-28T01:08:04.980Z,98968.00
2022-11-28T01:10:34.959Z,98970.00
2022-11-28T01:13:04.884Z,98967.00
2022-11-28T01:15:34.763Z,98951.00
2022-11-28T01:18:05.347Z,98941.00
2022-11-28T01:20:35.311Z,98938.00
2022-11-28T01:23:07.813Z,98937.00
2022-11-28T01:25:38.028Z,98924.00
2022-11-28T01:28:08.122Z,98919.00
2022-11-28T01:30:37.981Z,98929.00
2022-11-28T01:33:07.843Z,98920.00
2022-11-28T01:35:37.765Z,98912.00
2022-11-28T01:38:10.217Z,98916.00
2022-11-28T01:40:47.708Z,98912.00
2022-11-28T01:43:17.568Z,98913.00
2022-11-28T01:45:47.703Z,98904.00
2022-11-28T01:48:20.185Z,98904.00
2022-11-28T01:50:50.870Z,98898.00
2022-11-28T01:53:23.960Z,98887.00
2022-11-28T01:55:59.126Z,98899.00
2022-11-28T01:58:29.406Z,98892.00
2022-11-28T02:00:59.647Z,98881.00
2022-11-28T02:03:33.559Z,98868.00
2022-11-28T02:06:03.614Z,98875.00
2022-11-28T02:08:39.172Z,98878.00
2022-11-28T02:11:27.575Z,98889.00
2022-11-28T02:14:02.165Z,98886.00
2022-11-28T02:16:43.749Z,98883.00
2022-11-28T02:19:49.435Z,98893.00
2022-11-28T02:22:21.721Z,98880.00
2022-11-28T02:25:20.521Z,98878.00
2022-11-28T02:28:04.058Z,98881.00
2022-11-28T02:30:37.060Z,98880.00
2022-11-28T02:33:20.799Z,98877.00
2022-11-28T02:35:59.133Z,98876.00
2022-11-28T02:38:38.014Z,98874.00
2022-11-28T02:41:12.298Z,98866.00
2022-11-28T02:43:46.875Z,98869.00
2022-11-28T02:46:19.836Z,98872.00
2022-11-28T02:48:56.115Z,98852.00
2022-11-28T02:51:30.464Z,98849.00
2022-11-28T02:54:00.501Z,98857.00
2022-11-28T02:56:30.653Z,98851.00
2022-11-28T02:59:00.550Z,98870.00
2022-11-28T03:01:33.316Z,98869.00
2022-11-28T03:04:15.600Z,98854.00
2022-11-28T03:06:52.221Z,98858.00
2022-11-28T03:09:43.838Z,98854.00
2022-11-28T03:12:24.036Z,98852.00
2022-11-28T03:14:56.119Z,98852.00
2022-11-28T03:17:31.472Z,98848.00
2022-11-28T03:20:14.871Z,98853.00
2022-11-28T03:22:50.061Z,98838.00
2022-11-28T03:25:28.639Z,98851.00
2022-11-28T03:28:03.402Z,98852.00
2022-11-28T03:30:37.629Z,98849.00
2022-11-28T03:33:07.773Z,98848.00
2022-11-28T03:35:42.643Z,98836.00
2022-11-28T03:38:15.722Z,98830.00
2022-11-28T03:40:48.923Z,98836.00
2022-11-28T03:43:22.326Z,98831.00
2022-11-28T03:45:55.165Z,98830.00
2022-11-28T03:48:28.484Z,98817.00
2022-11-28T03:51:05.122Z,98821.00
2022-11-28T03:53:40.179Z,98826.00
2022-11-28T03:56:14.515Z,98824.00
2022-11-28T03:58:50.660Z,98819.00
2022-11-28T04:01:27.448Z,98817.00
2022-11-28T04:04:03.216Z,98819.00
2022-11-28T04:06:40.508Z,98828.00
2022-11-28T04:09:14.710Z,98826.00
2022-11-28T04:11:48.368Z,98826.00
2022-11-28T04:14:23.558Z,98828.00
2022-11-28T04:16:56.259Z,98826.00
2022-11-28T04:19:30.587Z,98819.00
2022-11-28T04:22:06.351Z,98816.00
2022-11-28T04:24:39.673Z,98809.00
2022-11-28T04:27:11.684Z,98814.00
2022-11-28T04:29:45.371Z,98811.00
2022-11-28T04:32:19.238Z,98811.00
2022-11-28T04:34:53.898Z,98806.00
2022-11-28T04:37:28.580Z,98817.00
2022-11-28T04:39:59.565Z,98810.00
2022-11-28T04:42:34.231Z,98803.00
2022-11-28T04:45:06.406Z,98808.00
2022-11-28T04:47:36.387Z,98807.00
2022-11-28T04:50:06.943Z,98817.00
2022-11-28T04:52:43.168Z,98808.00
2022-11-28T04:55:17.685Z,98807.00
2022-11-28T04:57:54.200Z,98796.00
2022-11-28T05:00:26.650Z,98799.00
2022-11-28T05:02:57.829Z,98794.00
2022-11-28T05:05:31.579Z,98802.00
2022-11-28T05:08:04.201Z,98801.00
2022-11-28T05:10:35.011Z,98803.00
2022-11-28T05:13:04.979Z,98796.00
2022-11-28T05:15:34.882Z,98797.00
2022-11-28T05:18:05.070Z,98788.00
2022-11-28T05:20:35.078Z,98784.00
2022-11-28T05:23:07.965Z,98786.00
2022-11-28T05:25:38.012Z,98801.00
2022-11-28T05:28:08.021Z,98787.00
2022-11-28T05:30:37.855Z,98779.00
2022-11-28T05:33:07.710Z,98785.00
2022-11-28T05:35:37.606Z,98780.00
2022-11-28T05:38:13.506Z,98780.00
2022-11-28T05:40:44.657Z,98782.00
2022-11-28T05:43:14.592Z,98774.00
2022-11-28T05:45:45.185Z,98763.00
2022-11-28T05:48:15.524Z,98780.00
2022-11-28T05:50:45.523Z,98769.00
2022-11-28T05:53:17.968Z,98776.00
2022-11-28T05:55:48.420Z,98769.00
2022-11-28T05:58:18.760Z,98766.00
2022-11-28T06:00:48.600Z,98775.00
2022-11-28T06:03:18.540Z,98765.00
2022-11-28T06:05:48.550Z,98759.00
2022-11-28T06:08:21.100Z,98756.00
2022-11-28T06:10:59.900Z,98767.00
2022-11-28T06:13:29.764Z,98769.00
2022-11-28T06:15:59.546Z,98759.00
2022-11-28T06:18:29.685Z,98750.00
2022-11-28T06:20:59.524Z,98751.00
2022-11-28T06:23:32.218Z,98758.00
2022-11-28T06:26:07.720Z,98761.00
2022-11-28T06:28:38.337Z,98754.00
2022-11-28T06:31:30.336Z,98755.00
2022-11-28T06:34:00.967Z,98763.00
2022-11-28T06:36:31.899Z,98757.00
2022-11-28T06:39:04.498Z,98763.00
2022-11-28T06:41:34.442Z,98750.00
2022-11-28T06:44:04.360Z,98756.00
2022-11-28T06:46:34.270Z,98759.00
2022-11-28T06:49:04.340Z,98749.00
2022-11-28T06:51:34.219Z,98746.00
2022-11-28T06:54:06.885Z,98746.00
2022-11-28T06:56:36.832Z,98746.00
2022-11-28T06:59:06.771Z,98737.00
2022-11-28T07:01:36.929Z,98744.00
2022-11-28T07:04:07.130Z,98745.00
2022-11-28T07:06:37.236Z,98737.00
2022-11-28T07:09:09.814Z,98740.00
2022-11-28T07:11:39.760Z,98746.00
2022-11-28T07:14:10.624Z,98738.00
2022-11-28T07:16:40.890Z,98734.00
2022-11-28T07:19:10.886Z,98737.00
2022-11-28T07:21:41.341Z,98733.00
2022-11-28T07:24:13.930Z,98736.00
2022-11-28T07:26:43.823Z,98735.00
2022-11-28T07:29:17.498Z,98731.00
2022-11-28T07:31:48.083Z,98730.00
2022-11-28T07:34:18.115Z,98735.00
2022-11-28T07:36:47.985Z,98723.00
2022-11-28T07:39:20.561Z,98722.00
2022-11-28T07:41:50.467Z,98730.00
2022-11-28T07:44:20.718Z,98722.00
2022-11-28T07:46:50.628Z,98730.00
2022-11-28T07:49:20.512Z,98716.00
2022-11-28T07:51:50.521Z,98720.00
2022-11-28T07:54:23.113Z,98718.00
2022-11-28T07:59:43.950Z,98731.00
2022-11-28T08:02:14.956Z,98734.00
2022-11-28T08:04:50.430Z,98732.00
2022-11-28T08:07:22.078Z,98727.00
2022-11-28T08:09:54.624Z,98724.00
2022-11-28T08:12:24.527Z,98725.00
2022-11-28T08:14:54.396Z,98720.00
2022-11-28T08:17:24.360Z,98723.00
2022-11-28T08:19:54.209Z,98712.00
2022-11-28T08:22:24.160Z,98706.00
2022-11-28T08:24:56.680Z,98714.00
2022-11-28T08:27:26.523Z,98706.00
2022-11-28T08:29:56.363Z,98708.00
2022-11-28T08:32:26.257Z,98712.00
2022-11-28T08:34:56.077Z,98707.00
2022-11-28T08:37:26.655Z,98708.00
2022-11-28T08:39:59.168Z,98705.00
2022-11-28T08:42:29.127Z,98710.00
2022-11-28T08:44:59.115Z,98706.00
2022-11-28T08:47:29.040Z,98714.00
2022-11-28T08:49:59.008Z,98706.00
2022-11-28T08:52:29.235Z,98703.00
2022-11-28T08:55:01.780Z,98702.00
2022-11-28T08:57:31.696Z,98689.00
2022-11-28T09:00:01.584Z,98700.00
2022-11-28T09:02:31.497Z,98691.00
2022-11-28T09:05:01.544Z,98703.00
2022-11-28T09:07:31.512Z,98699.00
2022-11-28T09:10:04.075Z,98683.00
2022-11-28T09:12:34.471Z,98693.00
2022-11-28T09:15:04.347Z,98695.00
2022-11-28T09:17:34.255Z,98681.00
2022-11-28T09:20:04.433Z,98673.00
2022-11-28T09:22:34.275Z,98669.00
2022-11-28T09:25:07.269Z,98673.00
2022-11-28T09:27:37.123Z,98669.00
2022-11-28T09:30:08.127Z,98676.00
2022-11-28T09:32:38.491Z,98670.00
2022-11-28T09:35:09.587Z,98665.00
2022-11-28T09:37:39.457Z,98668.00
2022-11-28T09:40:19.051Z,98661.00
2022-11-28T09:42:49.704Z,98661.00
2022-11-28T09:45:21.650Z,98665.00
2022-11-28T09:47:54.440Z,98657.00
2022-11-28T09:50:26.804Z,98658.00
2022-11-28T09:53:01.041Z,98656.00
2022-11-28T09:55:38.556Z,98652.00
2022-11-28T09:58:14.622Z,98649.00
2022-11-28T10:00:54.185Z,98650.00
2022-11-28T10:03:38.433Z,98651.00
2022-11-28T10:06:16.125Z,98650.00
2022-11-28T10:08:54.805Z,98639.00
2022-11-28T10:11:37.036Z,98644.00
2022-11-28T10:14:18.531Z,98636.00
2022-11-28T10:16:53.382Z,98638.00
2022-11-28T10:19:53.331Z,98639.00
2022-11-28T10:22:23.220Z,98638.00
2022-11-28T10:24:56.549Z,98630.00
2022-11-28T10:27:37.179Z,98628.00
2022-11-28T10:30:12.271Z,98620.00
2022-11-28T10:32:45.210Z,98623.00
2022-11-28T10:35:28.090Z,98623.00
2022-11-28T10:37:58.984Z,98619.00
2022-11-28T10:40:34.823Z,98609.00
2022-11-28T10:43:09.948Z,98609.00
2022-11-28T10:45:48.967Z,98614.00
2022-11-28T10:48:39.550Z,98609.00
2022-11-28T10:51:18.842Z,98610.00
2022-11-28T10:53:53.391Z,98608.00
2022-11-28T10:56:35.315Z,98597.00
2022-11-28T10:59:13.892Z,98598.00
2022-11-28T11:01:48.814Z,98601.00
2022-11-28T11:04:22.266Z,98598.00
2022-11-28T11:07:12.768Z,98596.00
2022-11-28T11:09:46.560Z,98593.00
2022-11-28T11:12:22.158Z,98585.00
2022-11-28T11:14:54.727Z,98580.00
2022-11-28T11:17:35.469Z,98586.00
2022-11-28T11:20:17.722Z,98588.00
2022-11-28T11:22:57.440Z,98576.00
2022-11-28T11:25:27.889Z,98590.00
2022-11-28T11:28:01.068Z,98592.00
2022-11-28T11:30:35.148Z,98582.00
2022-11-28T11:33:07.724Z,98569.00
2022-11-28T11:35:39.268Z,98574.00
2022-11-28T11:38:34.766Z,98575.00
2022-11-28T11:41:23.797Z,98573.00
2022-11-28T11:43:53.713Z,98564.00
2022-11-28T11:46:26.764Z,98559.00
2022-11-28T11:48:56.745Z,98556.00
2022-11-28T11:51:28.823Z,98552.00
2022-11-28T11:54:06.840Z,98554.00
2022-11-28T11:56:40.129Z,98549.00
2022-11-28T11:59:15.126Z,98554.00
2022-11-28T12:01:49.174Z,98549.00
2022-11-28T12:04:44.674Z,98547.00
2022-11-28T12:07:21.398Z,98566.00
2022-11-28T12:09:54.510Z,98557.00
2022-11-28T12:12:26.428Z,98548.00
2022-11-28T12:14:56.358Z,98550.00
2022-11-28T12:17:58.812Z,98538.00
2022-11-28T12:20:37.052Z,98537.00
2022-11-28T12:23:18.240Z,98530.00
2022-11-28T12:25:51.843Z,98535.00
2022-11-28T12:28:31.824Z,98529.00
2022-11-28T12:31:26.501Z,98526.00
2022-11-28T12:34:09.968Z,98528.00
2022-11-28T12:36:43.872Z,98535.00
2022-11-28T12:39:20.585Z,98534.00
2022-11-28T12:42:11.932Z,98530.00
2022-11-28T12:45:06.246Z,98535.00
2022-11-28T12:47:43.485Z,98528.00
2022-11-28T12:50:26.280Z,98527.00
2022-11-28T12:53:12.852Z,98527.00
2022-11-28T12:55:49.206Z,98516.00
2022-11-28T12:58:25.431Z,98523.00
2022-11-28T13:01:00.534Z,98525.00
2022-11-28T13:03:43.228Z,98524.00
2022-11-28T13:06:25.340Z,98518.00
2022-11-28T13:09:10.211Z,98519.00
2022-11-28T13:11:52.556Z,98512.00
2022-11-28T13:14:29.873Z,98518.00
2022-11-28T13:17:19.372Z,98516.00
2022-11-28T13:19:54.128Z,98519.00
2022-11-28T13:22:27.887Z,98511.00
2022-11-28T13:25:03.689Z,98515.00
2022-11-28T13:27:40.698Z,98517.00
2022-11-28T13:30:20.344Z,98509.00
2022-11-28T13:32:53.653Z,98511.00
2022-11-28T13:35:24.185Z,98520.00
2022-11-28T13:40:54.548Z,98516.00
2022-11-28T13:43:33.094Z,98517.00
2022-11-28T13:46:03.222Z,98519.00
2022-11-28T13:49:13.751Z,98517.00
2022-11-28T13:51:44.068Z,98528.00
2022-11-28T13:54:49.966Z,98524.00
2022-11-28T13:57:30.014Z,98515.00
2022-11-28T14:00:05.303Z,98529.00
2022-11-28T14:02:47.224Z,98520.00
2022-11-28T14:05:35.876Z,98539.00
2022-11-28T14:08:07.212Z,98529.00
2022-11-28T14:10:56.578Z,98528.00
2022-11-28T14:13:48.407Z,98527.00
2022-11-28T14:16:29.702Z,98522.00
2022-11-28T14:19:07.776Z,98525.00
2022-11-28T14:21:48.103Z,98517.00
2022-11-28T14:24:23.199Z,98528.00
2022-11-28T14:27:00.531Z,98525.00
2022-11-28T14:29:38.775Z,98534.00
2022-11-28T14:32:29.695Z,98528.00
2022-11-28T14:34:59.170Z,98525.00
2022-11-28T14:37:55.667Z,98531.00
2022-11-28T14:41:11.783Z,98538.00
2022-11-28T14:43:44.804Z,98534.00
2022-11-28T14:46:36.163Z,98538.00
2022-11-28T14:49:22.569Z,98538.00
2022-11-28T14:52:38.916Z,98526.00
2022-11-28T14:55:20.747Z,98535.00
2022-11-28T14:58:02.158Z,98536.00
2022-11-28T15:00:35.840Z,98510.00
2022-11-28T15:03:17.660Z,98512.00
2022-11-28T15:05:48.624Z,98522.00
2022-11-28T15:08:48.180Z,98524.00
2022-11-28T15:11:25.645Z,98530.00
2022-11-28T15:14:10.927Z,98523.00
2022-11-28T15:16:50.273Z,98531.00
2022-11-28T15:19:28.853Z,98523.00
2022-11-28T15:21:59.166Z,98525.00
2022-11-28T15:24:32.616Z,98525.00
2022-11-28T15:27:21.490Z,98539.00
2022-11-28T15:29:56.810Z,98542.00
2022-11-28T15:32:27.840Z,98544.00
2022-11-28T15:35:05.430Z,98543.00
2022-11-28T15:37:39.417Z,98551.00
2022-11-28T15:40:10.867Z,98542.00
2022-11-28T15:42:40.886Z,98549.00
2022-11-28T15:45:17.035Z,98555.00
2022-11-28T15:47:49.722Z,98556.00
2022-11-28T15:50:25.263Z,98550.00
2022-11-28T15:52:59.533Z,98550.00
2022-11-28T15:55:31.693Z,98548.00
2022-11-28T15:58:15.712Z,98547.00
2022-11-28T16:00:47.082Z,98546.00
2022-11-28T16:03:19.016Z,98541.00
2022-11-28T16:05:52.071Z,98543.00
2022-11-28T16:08:27.358Z,98542.00
2022-11-28T16:10:58.731Z,98540.00
2022-11-28T16:13:28.738Z,98534.00
2022-11-28T16:16:01.438Z,98544.00
2022-11-28T16:18:32.305Z,98547.00
2022-11-28T16:21:04.939Z,98546.00
2022-11-28T16:23:38.046Z,98550.00
2022-11-28T16:26:09.616Z,98558.00
2022-11-28T16:28:40.912Z,98552.00
2022-11-28T16:31:14.878Z,98554.00
2022-11-28T16:33:46.402Z,98558.00
2022-11-28T16:36:25.105Z,98555.00
2022-11-28T16:38:56.595Z,98550.00
2022-11-28T16:41:30.661Z,98561.00
2022-11-28T16:44:05.152Z,98556.00
2022-11-28T16:46:37.974Z,98560.00
2022-11-28T16:49:09.402Z,98554.00
2022-11-28T16:51:43.540Z,98550.00
2022-11-28T16:54:32.162Z,98555.00
2022-11-28T16:57:14.790Z,98553.00
2022-11-28T16:59:45.905Z,98555.00
2022-11-28T17:02:19.037Z,98548.00
2022-11-28T17:04:50.091Z,98552.00
2022-11-28T17:07:23.969Z,98557.00
2022-11-28T17:09:54.004Z,98565.00
2022-11-28T17:12:27.753Z,98568.00
2022-11-28T17:14:58.829Z,98566.00
2022-11-28T17:17:28.901Z,98563.00
2022-11-28T17:19:58.841Z,98564.00
2022-11-28T17:22:41.068Z,98557.00
2022-11-28T17:25:17.242Z,98562.00
2022-11-28T17:27:48.263Z,98565.00
2022-11-28T17:30:19.724Z,98563.00
2022-11-28T17:32:52.100Z,98557.00
2022-11-28T17:35:24.934Z,98560.00
2022-11-28T17:37:57.464Z,98556.00
2022-11-28T17:40:36.911Z,98560.00
2022-11-28T17:43:07.659Z,98562.00
2022-11-28T17:45:38.658Z,98558.00
2022-11-28T17:48:09.489Z,98560.00
2022-11-28T17:50:39.659Z,98562.00
2022-11-28T17:53:15.468Z,98565.00
2022-11-28T17:55:47.146Z,98558.00
2022-11-28T17:58:19.168Z,98557.00
2022-11-28T18:00:50.280Z,98559.00
2022-11-28T18:03:20.566Z,98552.00
2022-11-28T18:05:52.931Z,98557.00
2022-11-28T18:08:26.003Z,98552.00
2022-11-28T18:11:05.937Z,98546.00
2022-11-28T18:13:36.074Z,98545.00
2022-11-28T18:16:06.063Z,98553.00
2022-11-28T18:18:36.017Z,98555.00
2022-11-28T18:21:07.172Z,98552.00
2022-11-28T18:23:40.200Z,98559.00
2022-11-28T18:26:11.802Z,98538.00
2022-11-28T18:28:42.576Z,98564.00
2022-11-28T18:31:13.595Z,98559.00
2022-11-28T18:33:43.628Z,98555.00
2022-11-28T18:36:16.147Z,98554.00
2022-11-28T18:38:48.941Z,98560.00
2022-11-28T18:41:20.294Z,98557.00
2022-11-28T18:43:50.047Z,98560.00
2022-11-28T18:46:21.671Z,98551.00
2022-11-28T18:48:51.899Z,98564.00
2022-11-28T18:51:23.781Z,98555.00
2022-11-28T18:53:56.867Z,98547.00
2022-11-28T18:56:29.399Z,98551.00
2022-11-28T18:58:59.918Z,98545.00
2022-11-28T19:01:32.647Z,98543.00
2022-11-28T19:04:04.314Z,98556.00
2022-11-28T19:06:34.686Z,98546.00
2022-11-28T19:09:09.473Z,98547.00
2022-11-28T19:11:39.859Z,98547.00
2022-11-28T19:14:11.422Z,98541.00
2022-11-28T19:16:43.260Z,98554.00
2022-11-28T19:19:17.271Z,98542.00
2022-11-28T19:21:47.359Z,98539.00
2022-11-28T19:24:19.860Z,98547.00
2022-11-28T19:26:49.875Z,98530.00
2022-11-28T19:29:20.722Z,98543.00
2022-11-28T19:31:51.277Z,98536.00
2022-11-28T19:34:22.027Z,98541.00
2022-11-28T19:36:54.353Z,98552.00
2022-11-28T19:39:28.263Z,98544.00
2022-11-28T19:41:58.723Z,98549.00
2022-11-28T19:44:29.486Z,98551.00
2022-11-28T19:46:59.465Z,98546.00
2022-11-28T19:49:31.057Z,98556.00
2022-11-28T19:52:01.027Z,98547.00
2022-11-28T19:54:33.623Z,98561.00
2022-11-28T19:57:07.858Z,98555.00
2022-11-28T19:59:37.749Z,98551.00
2022-11-28T20:02:08.417Z,98552.00
2022-11-28T20:04:38.427Z,98553.00
2022-11-28T20:07:08.327Z,98550.00
2022-11-28T20:09:41.696Z,98541.00
2022-11-28T20:12:11.836Z,98542.00
2022-11-28T20:14:41.711Z,98558.00
2022-11-28T20:17:11.670Z,98549.00
2022-11-28T20:19:42.080Z,98552.00
2022-11-28T20:22:12.448Z,98545.00
2022-11-28T20:24:44.920Z,98548.00
2022-11-28T20:27:14.907Z,98565.00
2022-11-28T20:29:45.258Z,98557.00
2022-11-28T20:32:15.409Z,98560.00
2022-11-28T20:34:45.418Z,98555.00
2022-11-28T20:37:15.279Z,98560.00
2022-11-28T20:39:47.738Z,98556.00
2022-11-28T20:42:17.922Z,98563.00
2022-11-28T20:44:47.819Z,98564.00
2022-11-28T20:47:18.072Z,98566.00
2022-11-28T20:49:47.988Z,98564.00
2022-11-28T20:52:18.356Z,98567.00
2022-11-28T20:54:50.808Z,98569.00
2022-11-28T20:57:22.270Z,98569.00
2022-11-28T20:59:52.642Z,98573.00
2022-11-28T21:02:22.611Z,98573.00
2022-11-28T21:04:52.449Z,98563.00
2022-11-28T21:07:23.240Z,98557.00
2022-11-28T21:09:59.932Z,98558.00
2022-11-28T21:12:29.875Z,98552.00
2022-11-28T21:14:59.694Z,98556.00
2022-11-28T21:17:29.621Z,98558.00
2022-11-28T21:19:59.478Z,98567.00
2022-11-28T21:22:29.504Z,98560.00
2022-11-28T21:25:02.484Z,98561.00
2022-11-28T21:27:32.536Z,98568.00
2022-11-28T21:30:02.465Z,98562.00
2022-11-28T21:32:32.393Z,98563.00
2022-11-28T21:35:04.575Z,98552.00
2022-11-28T21:37:34.676Z,98561.00
2022-11-28T21:40:08.427Z,98556.00
2022-11-28T21:42:38.427Z,98550.00
2022-11-28T21:45:09.621Z,98558.00
2022-11-28T21:47:39.558Z,98553.00
2022-11-28T21:50:10.866Z,98553.00
2022-11-28T21:52:40.799Z,98555.00
2022-11-28T21:55:13.555Z,98563.00
2022-11-28T21:57:44.943Z,98557.00
2022-11-28T22:00:31.613Z,98566.00
2022-11-28T22:03:12.460Z,98565.00
2022-11-28T22:05:44.514Z,98560.00
2022-11-28T22:08:14.331Z,98553.00
2022-11-28T22:10:46.862Z,98551.00
2022-11-28T22:13:16.733Z,98538.00
2022-11-28T22:15:46.895Z,98541.00
2022-11-28T22:18:16.856Z,98540.00
2022-11-28T22:20:51.654Z,98541.00
2022-11-28T22:23:22.941Z,98531.00
2022-11-28T22:25:56.014Z,98547.00
2022-11-28T22:28:25.847Z,98547.00
2022-11-28T22:30:55.717Z,98543.00
2022-11-28T22:33:25.684Z,98540.00
2022-11-28T22:35:56.081Z,98539.00
2022-11-28T22:38:26.228Z,98537.00
2022-11-28T22:40:58.822Z,98547.00
2022-11-28T22:43:28.933Z,98544.00
2022-11-28T22:45:59.656Z,98537.00
2022-11-28T22:48:31.577Z,98534.00
2022-11-28T22:51:01.640Z,98537.00
2022-11-28T22:53:31.651Z,98537.00
2022-11-28T22:56:08.146Z,98539.00
2022-11-28T22:58:42.507Z,98534.00
2022-11-28T23:01:14.670Z,98524.00
2022-11-28T23:03:45.832Z,98535.00
2022-11-28T23:06:18.321Z,98529.00
2022-11-28T23:08:49.141Z,98531.00
2022-11-28T23:11:25.466Z,98526.00
2022-11-28T23:13:55.826Z,98529.00
2022-11-28T23:16:27.987Z,98529.00
2022-11-28T23:19:00.020Z,98528.00
2022-11-28T23:21:33.232Z,98520.00
2022-11-28T23:24:03.731Z,98522.00
2022-11-28T23:26:37.199Z,98522.00
2022-11-28T23:29:08.097Z,98517.00
2022-11-28T23:31:41.870Z,98524.00
2022-11-28T23:34:14.335Z,98523.00
2022-11-28T23:36:46.363Z,98512.00
2022-11-28T23:39:18.411Z,98516.00
2022-11-28T23:41:51.533Z,98511.00
2022-11-28T23:44:22.335Z,98510.00
2022-11-28T23:46:52.304Z,98526.00
2022-11-28T23:49:22.437Z,98520.00
2022-11-28T23:51:52.331Z,98518.00
2022-11-28T23:54:22.288Z,98521.00
2022-11-28T23:56:54.866Z,98528.00
2022-11-28T23:59:25.134Z,98520.00
